Time;durP1;ratioP1;P1;durP2;ratioP2;P2;SDS_P1;SDS_P2;PMS_P1;PMS_P2;Temp;Humidity;BMP_temperature;BMP_pressure;BME280_temperature;BME280_humidity;BME280_pressure;Samples;Min_cycle;Max_cycle;Signal;HPM_P1;HPM_P2
2023/08/27 00:01:12;;;;;;;2.15;1.15;;;;;;;;;;5130163;27;20043;-72
2023/08/27 00:03:39;;;;;;;2.70;1.00;;;;;;;;;;5130105;27;20054;-72
2023/08/27 00:06:06;;;;;;;2.05;1.25;;;;;;;;;;5129820;27;20130;-73
2023/08/27 00:08:33;;;;;;;2.20;1.00;;;;;;;;;;5129165;27;20119;-73
2023/08/27 00:11:00;;;;;;;1.52;1.08;;;;;;;;;;5129675;27;20498;-73
2023/08/27 00:13:27;;;;;;;3.00;0.90;;;;;;;;;;5128558;27;20126;-73
2023/08/27 00:15:54;;;;;;;2.55;1.00;;;;;;;;;;5129903;27;20043;-73
2023/08/27 00:18:22;;;;;;;3.28;1.05;;;;;;;;;;5129570;27;20048;-73
2023/08/27 00:20:49;;;;;;;2.47;1.00;;;;;;;;;;5130155;27;20062;-73
2023/08/27 00:23:16;;;;;;;1.88;0.90;;;;;;;;;;5129016;27;20620;-73
2023/08/27 00:25:43;;;;;;;1.88;0.88;;;;;;;;;;5129728;27;20126;-73
2023/08/27 00:28:13;;;;;;;4.45;1.00;;;;;;;;;;5129425;27;20051;-72
2023/08/27 00:30:41;;;;;;;3.50;1.00;;;;;;;;;;5129763;27;20127;-73
2023/08/27 00:33:08;;;;;;;1.17;0.65;;;;;;;;;;5129452;27;20050;-73
2023/08/27 00:35:36;;;;;;;1.48;0.80;;;;;;;;;;5129350;27;20702;-73
2023/08/27 00:38:06;;;;;;;2.92;0.88;;;;;;;;;;5129058;27;20130;-73
2023/08/27 00:40:33;;;;;;;1.50;0.70;;;;;;;;;;5129497;27;20422;-72
2023/08/27 00:43:00;;;;;;;1.70;0.85;;;;;;;;;;5129219;27;20047;-74
2023/08/27 00:45:27;;;;;;;1.75;0.80;;;;;;;;;;5129513;27;20050;-74
2023/08/27 00:47:55;;;;;;;2.17;0.70;;;;;;;;;;5130453;27;20261;-74
2023/08/27 00:50:22;;;;;;;3.00;0.77;;;;;;;;;;5136801;27;20529;-75
2023/08/27 00:52:50;;;;;;;1.92;0.90;;;;;;;;;;5135770;27;20590;-73
2023/08/27 00:55:16;;;;;;;1.73;0.82;;;;;;;;;;5136252;27;20039;-73
2023/08/27 00:57:44;;;;;;;2.45;0.90;;;;;;;;;;5136278;27;20050;-73
2023/08/27 01:00:11;;;;;;;2.72;0.60;;;;;;;;;;5136226;27;20050;-73
2023/08/27 01:02:38;;;;;;;2.28;0.80;;;;;;;;;;5135879;27;20047;-73
2023/08/27 01:05:05;;;;;;;1.75;0.73;;;;;;;;;;5135989;27;20568;-73
2023/08/27 01:07:46;;;;;;;1.73;0.85;;;;;;;;;;5134575;27;20043;-73
2023/08/27 01:10:22;;;;;;;2.20;0.80;;;;;;;;;;5136238;27;20054;-73
2023/08/27 01:13:02;;;;;;;2.15;0.75;;;;;;;;;;5134602;27;20091;-73
2023/08/27 01:15:30;;;;;;;1.10;0.77;;;;;;;;;;5135940;27;20047;-73
2023/08/27 01:17:59;;;;;;;2.30;0.80;;;;;;;;;;5135898;27;20043;-73
2023/08/27 01:20:27;;;;;;;1.42;0.70;;;;;;;;;;5135610;27;20043;-73
2023/08/27 01:22:54;;;;;;;1.70;0.80;;;;;;;;;;5135529;27;20045;-72
2023/08/27 01:25:30;;;;;;;1.60;0.75;;;;;;;;;;5136250;27;20047;-73
2023/08/27 01:28:00;;;;;;;1.27;0.68;;;;;;;;;;5135819;27;20099;-73
2023/08/27 01:30:33;;;;;;;1.40;0.68;;;;;;;;;;5136204;27;20050;-72
2023/08/27 01:33:06;;;;;;;1.63;0.70;;;;;;;;;;5135834;27;20062;-73
2023/08/27 01:35:33;;;;;;;3.28;1.00;;;;;;;;;;5135788;27;20100;-72
2023/08/27 01:38:00;;;;;;;1.00;0.80;;;;;;;;;;5135223;27;20515;-73
2023/08/27 01:40:27;;;;;;;1.25;0.73;;;;;;;;;;5136060;27;20039;-73
2023/08/27 01:42:54;;;;;;;1.33;0.90;;;;;;;;;;5135799;27;20047;-73
2023/08/27 01:45:20;;;;;;;1.88;0.88;;;;;;;;;;5135768;27;20167;-73
2023/08/27 01:47:47;;;;;;;1.90;0.90;;;;;;;;;;5136306;27;20051;-73
2023/08/27 01:50:14;;;;;;;1.55;0.80;;;;;;;;;;5135790;27;20051;-73
2023/08/27 01:52:40;;;;;;;2.63;0.80;;;;;;;;;;5135279;27;20051;-73
2023/08/27 01:55:07;;;;;;;1.38;0.85;;;;;;;;;;5135206;27;20047;-73
2023/08/27 01:57:34;;;;;;;0.77;0.50;;;;;;;;;;5135857;27;20057;-73
2023/08/27 02:00:01;;;;;;;0.75;0.60;;;;;;;;;;5133071;27;20043;-72
2023/08/27 02:02:27;;;;;;;2.28;0.70;;;;;;;;;;5132541;27;20051;-73
2023/08/27 02:04:54;;;;;;;1.15;0.60;;;;;;;;;;5132612;27;20047;-73
2023/08/27 02:07:21;;;;;;;0.88;0.60;;;;;;;;;;5132132;27;20410;-73
2023/08/27 02:09:47;;;;;;;0.85;0.65;;;;;;;;;;5131598;27;20065;-73
2023/08/27 02:12:14;;;;;;;1.10;0.70;;;;;;;;;;5132252;27;20050;-73
2023/08/27 02:14:43;;;;;;;1.40;0.60;;;;;;;;;;5132083;27;20138;-73
2023/08/27 02:17:09;;;;;;;1.38;0.70;;;;;;;;;;5131871;27;20579;-73
2023/08/27 02:19:36;;;;;;;0.70;0.50;;;;;;;;;;5132232;27;20067;-74
2023/08/27 02:22:03;;;;;;;1.30;0.65;;;;;;;;;;5132067;27;20047;-74
2023/08/27 02:24:29;;;;;;;0.95;0.65;;;;;;;;;;5131701;27;20050;-73
2023/08/27 02:26:56;;;;;;;2.15;0.80;;;;;;;;;;5131928;27;20047;-73
2023/08/27 02:29:23;;;;;;;1.40;0.70;;;;;;;;;;5130584;27;20039;-73
2023/08/27 02:31:49;;;;;;;1.08;0.60;;;;;;;;;;5131945;27;20048;-73
2023/08/27 02:34:16;;;;;;;1.60;0.77;;;;;;;;;;5131252;27;20055;-73
2023/08/27 02:36:43;;;;;;;1.95;0.60;;;;;;;;;;5131766;27;20134;-73
2023/08/27 02:39:09;;;;;;;1.48;0.70;;;;;;;;;;5131446;27;20146;-73
2023/08/27 02:41:36;;;;;;;0.95;0.55;;;;;;;;;;5131767;27;20551;-72
2023/08/27 02:44:03;;;;;;;1.70;0.70;;;;;;;;;;5131519;27;20043;-73
2023/08/27 02:46:29;;;;;;;1.90;0.80;;;;;;;;;;5131543;27;20043;-73
2023/08/27 02:48:56;;;;;;;1.00;0.63;;;;;;;;;;5131391;27;20047;-73
2023/08/27 02:51:23;;;;;;;1.75;0.88;;;;;;;;;;5131491;27;20055;-73
2023/08/27 02:53:51;;;;;;;1.63;0.80;;;;;;;;;;5130857;27;20047;-73
2023/08/27 02:56:18;;;;;;;1.60;0.70;;;;;;;;;;5131539;27;20070;-73
2023/08/27 02:58:49;;;;;;;1.30;0.73;;;;;;;;;;5131932;27;20047;-72
2023/08/27 03:01:22;;;;;;;1.67;0.63;;;;;;;;;;5131576;27;20146;-73
2023/08/27 03:03:50;;;;;;;2.25;0.70;;;;;;;;;;5131474;27;20050;-73
2023/08/27 03:06:17;;;;;;;0.73;0.60;;;;;;;;;;5130958;27;20701;-72
2023/08/27 03:08:44;;;;;;;1.95;0.70;;;;;;;;;;5130590;27;20046;-73
2023/08/27 03:11:10;;;;;;;2.72;1.00;;;;;;;;;;5130907;27;20066;-73
2023/08/27 03:13:37;;;;;;;1.33;0.73;;;;;;;;;;5131037;27;20529;-72
2023/08/27 03:16:04;;;;;;;1.55;0.70;;;;;;;;;;5130587;27;20463;-73
2023/08/27 03:18:33;;;;;;;2.03;0.77;;;;;;;;;;5147159;27;20043;-72
2023/08/27 03:20:59;;;;;;;1.33;0.80;;;;;;;;;;5130565;27;20530;-73
2023/08/27 03:23:26;;;;;;;4.95;0.88;;;;;;;;;;5130370;27;20086;-73
2023/08/27 03:25:53;;;;;;;1.55;0.80;;;;;;;;;;5130585;27;20039;-73
2023/08/27 03:28:19;;;;;;;1.73;0.80;;;;;;;;;;5130557;27;20046;-73
2023/08/27 03:30:46;;;;;;;2.05;0.98;;;;;;;;;;5130782;27;20043;-73
2023/08/27 03:33:13;;;;;;;2.03;0.75;;;;;;;;;;5130647;27;20061;-73
2023/08/27 03:35:40;;;;;;;2.30;0.75;;;;;;;;;;5130648;27;20043;-73
2023/08/27 03:38:06;;;;;;;2.00;0.77;;;;;;;;;;5130118;27;20046;-72
2023/08/27 03:40:33;;;;;;;2.63;0.95;;;;;;;;;;5130200;27;20047;-73
2023/08/27 03:43:00;;;;;;;1.80;0.63;;;;;;;;;;5130475;27;20049;-73
2023/08/27 03:45:28;;;;;;;2.75;1.00;;;;;;;;;;5129969;27;20126;-73
2023/08/27 03:47:54;;;;;;;1.27;0.90;;;;;;;;;;5130444;27;20074;-73
2023/08/27 03:50:21;;;;;;;0.93;0.60;;;;;;;;;;5130430;27;20502;-74
2023/08/27 03:52:48;;;;;;;1.58;0.70;;;;;;;;;;5130041;27;20051;-73
2023/08/27 03:55:15;;;;;;;1.27;0.70;;;;;;;;;;5129972;27;20043;-73
2023/08/27 03:57:42;;;;;;;1.33;0.70;;;;;;;;;;5129879;27;20444;-72
2023/08/27 04:00:09;;;;;;;2.60;0.90;;;;;;;;;;5129894;27;20055;-73
2023/08/27 04:02:36;;;;;;;2.20;0.77;;;;;;;;;;5130559;27;20058;-73
2023/08/27 04:05:05;;;;;;;1.88;0.80;;;;;;;;;;5130030;27;20043;-73
2023/08/27 04:07:31;;;;;;;0.77;0.57;;;;;;;;;;5129983;27;20047;-73
2023/08/27 04:09:58;;;;;;;1.30;0.70;;;;;;;;;;5129899;27;20050;-74
2023/08/27 04:12:25;;;;;;;1.77;0.65;;;;;;;;;;5129745;27;20050;-73
2023/08/27 04:14:51;;;;;;;1.25;0.70;;;;;;;;;;5130070;27;20088;-73
2023/08/27 04:17:18;;;;;;;1.38;0.63;;;;;;;;;;5129638;27;20054;-72
2023/08/27 04:19:44;;;;;;;1.02;0.52;;;;;;;;;;5129571;27;20050;-73
2023/08/27 04:22:11;;;;;;;0.50;0.50;;;;;;;;;;5129683;27;20422;-73
2023/08/27 04:24:38;;;;;;;1.65;0.82;;;;;;;;;;5129237;27;20047;-73
2023/08/27 04:27:05;;;;;;;1.33;0.70;;;;;;;;;;5129326;27;20047;-73
2023/08/27 04:29:31;;;;;;;1.33;0.70;;;;;;;;;;5129979;27;20043;-73
2023/08/27 04:31:58;;;;;;;2.28;0.90;;;;;;;;;;5129939;27;20050;-73
2023/08/27 04:34:25;;;;;;;0.65;0.45;;;;;;;;;;5128067;27;20575;-72
2023/08/27 04:36:51;;;;;;;1.00;0.60;;;;;;;;;;5129153;27;20046;-73
2023/08/27 04:39:18;;;;;;;1.85;0.80;;;;;;;;;;5129203;27;20455;-73
2023/08/27 04:41:44;;;;;;;1.42;0.50;;;;;;;;;;5129646;27;20053;-73
2023/08/27 04:44:11;;;;;;;0.93;0.60;;;;;;;;;;5129601;27;20411;-73
2023/08/27 04:46:39;;;;;;;1.70;0.60;;;;;;;;;;5129494;28;20607;-73
2023/08/27 04:49:05;;;;;;;1.52;0.70;;;;;;;;;;5129304;28;20054;-73
2023/08/27 04:51:32;;;;;;;3.20;0.88;;;;;;;;;;5129534;27;20068;-73
2023/08/27 04:53:59;;;;;;;1.45;0.68;;;;;;;;;;5128986;28;20069;-73
2023/08/27 04:56:25;;;;;;;2.03;0.70;;;;;;;;;;5129181;28;20051;-73
2023/08/27 04:58:52;;;;;;;1.38;0.75;;;;;;;;;;5129343;28;20406;-73
2023/08/27 05:01:19;;;;;;;1.73;0.73;;;;;;;;;;5129225;28;20127;-73
2023/08/27 05:03:45;;;;;;;0.95;0.68;;;;;;;;;;5129538;27;20047;-73
2023/08/27 05:06:12;;;;;;;1.48;0.77;;;;;;;;;;5129078;28;20051;-72
2023/08/27 05:08:39;;;;;;;1.20;0.60;;;;;;;;;;5128791;27;20568;-72
2023/08/27 05:11:06;;;;;;;1.05;0.70;;;;;;;;;;5129237;27;20051;-73
2023/08/27 05:13:32;;;;;;;2.20;0.70;;;;;;;;;;5129181;28;20254;-72
2023/08/27 05:15:59;;;;;;;3.55;0.63;;;;;;;;;;5129263;27;20057;-72
2023/08/27 05:18:26;;;;;;;1.45;0.70;;;;;;;;;;5129147;27;20118;-73
2023/08/27 05:20:53;;;;;;;1.40;0.70;;;;;;;;;;5129231;27;20053;-72
2023/08/27 05:23:22;;;;;;;1.23;0.63;;;;;;;;;;5128569;28;20053;-72
2023/08/27 05:25:49;;;;;;;1.58;0.68;;;;;;;;;;5129128;27;20542;-73
2023/08/27 05:28:15;;;;;;;1.73;0.70;;;;;;;;;;5128851;28;20043;-72
2023/08/27 05:30:42;;;;;;;0.93;0.63;;;;;;;;;;5128877;28;20059;-73
2023/08/27 05:33:09;;;;;;;1.05;0.75;;;;;;;;;;5128762;27;20541;-72
2023/08/27 05:35:36;;;;;;;0.55;0.43;;;;;;;;;;5130529;27;20092;-72
2023/08/27 05:38:03;;;;;;;1.73;0.63;;;;;;;;;;5132258;27;20134;-73
2023/08/27 05:40:29;;;;;;;3.95;0.73;;;;;;;;;;5133083;27;20077;-73
2023/08/27 05:42:56;;;;;;;1.02;0.50;;;;;;;;;;5132925;27;20051;-73
2023/08/27 05:45:23;;;;;;;3.60;0.70;;;;;;;;;;5132604;27;20643;-73
2023/08/27 05:47:49;;;;;;;1.08;0.70;;;;;;;;;;5132123;27;20054;-73
2023/08/27 05:50:16;;;;;;;1.50;0.65;;;;;;;;;;5148385;27;20054;-73
2023/08/27 05:52:43;;;;;;;2.25;0.88;;;;;;;;;;5132363;27;20073;-73
2023/08/27 05:55:09;;;;;;;1.25;0.70;;;;;;;;;;5132635;27;20518;-73
2023/08/27 05:57:36;;;;;;;1.85;0.80;;;;;;;;;;5132567;27;20066;-72
2023/08/27 06:00:05;;;;;;;2.05;0.70;;;;;;;;;;5132716;27;20139;-73
2023/08/27 06:02:33;;;;;;;1.88;0.75;;;;;;;;;;5132270;27;20050;-72
2023/08/27 06:04:59;;;;;;;1.02;0.55;;;;;;;;;;5132604;27;20086;-73
2023/08/27 06:07:26;;;;;;;0.52;0.50;;;;;;;;;;5130306;27;20054;-73
2023/08/27 06:09:54;;;;;;;2.03;0.90;;;;;;;;;;5132304;27;20073;-72
2023/08/27 06:12:21;;;;;;;0.98;0.63;;;;;;;;;;5132212;27;20043;-72
2023/08/27 06:14:48;;;;;;;3.25;0.65;;;;;;;;;;5132630;27;20055;-72
2023/08/27 06:17:14;;;;;;;1.10;0.70;;;;;;;;;;5132264;27;20054;-73
2023/08/27 06:19:41;;;;;;;0.70;0.50;;;;;;;;;;5132153;27;20047;-73
2023/08/27 06:22:14;;;;;;;0.70;0.50;;;;;;;;;;5131961;27;20506;-73
2023/08/27 06:24:42;;;;;;;1.83;0.50;;;;;;;;;;5132023;27;20043;-73
2023/08/27 06:27:08;;;;;;;1.05;0.52;;;;;;;;;;5131933;27;20410;-73
2023/08/27 06:29:35;;;;;;;1.52;0.80;;;;;;;;;;5132400;27;20070;-74
2023/08/27 06:32:01;;;;;;;0.63;0.47;;;;;;;;;;5131953;27;20047;-73
2023/08/27 06:34:28;;;;;;;1.50;0.50;;;;;;;;;;5131794;27;20066;-73
2023/08/27 06:36:57;;;;;;;0.90;0.60;;;;;;;;;;5131878;27;20130;-73
2023/08/27 06:39:23;;;;;;;0.40;0.40;;;;;;;;;;5131056;27;20502;-74
2023/08/27 06:41:50;;;;;;;0.93;0.57;;;;;;;;;;5131333;27;20047;-73
2023/08/27 06:44:17;;;;;;;1.58;0.80;;;;;;;;;;5131510;27;20391;-73
2023/08/27 06:46:43;;;;;;;0.80;0.57;;;;;;;;;;5130886;27;20164;-72
2023/08/27 06:49:10;;;;;;;2.25;0.70;;;;;;;;;;5131484;27;20557;-75
2023/08/27 06:51:37;;;;;;;1.58;0.63;;;;;;;;;;5131478;27;20051;-73
2023/08/27 06:54:04;;;;;;;1.20;0.85;;;;;;;;;;5130022;27;20047;-73
2023/08/27 06:56:31;;;;;;;1.02;0.65;;;;;;;;;;5131611;27;20088;-73
2023/08/27 06:58:57;;;;;;;1.20;0.60;;;;;;;;;;5131254;27;20047;-73
2023/08/27 07:01:24;;;;;;;1.50;0.80;;;;;;;;;;5131443;27;20107;-73
2023/08/27 07:03:51;;;;;;;1.02;0.70;;;;;;;;;;5131539;27;20043;-72
2023/08/27 07:06:19;;;;;;;2.17;0.60;;;;;;;;;;5131490;27;20054;-73
2023/08/27 07:08:46;;;;;;;2.50;0.80;;;;;;;;;;5130463;27;20043;-73
2023/08/27 07:11:12;;;;;;;1.38;0.73;;;;;;;;;;5131546;27;20039;-73
2023/08/27 07:13:39;;;;;;;1.63;0.80;;;;;;;;;;5131049;27;20054;-72
2023/08/27 07:16:06;;;;;;;1.85;0.80;;;;;;;;;;5131133;27;20372;-73
2023/08/27 07:18:32;;;;;;;1.13;0.80;;;;;;;;;;5130610;27;20501;-73
2023/08/27 07:20:59;;;;;;;4.13;0.90;;;;;;;;;;5131094;27;20039;-73
2023/08/27 07:23:26;;;;;;;1.58;0.90;;;;;;;;;;5130604;27;20126;-72
2023/08/27 07:25:53;;;;;;;1.65;0.85;;;;;;;;;;5131029;27;20051;-73
2023/08/27 07:28:20;;;;;;;1.42;0.80;;;;;;;;;;5130465;27;20051;-73
2023/08/27 07:30:50;;;;;;;1.25;0.77;;;;;;;;;;5130002;27;20053;-73
2023/08/27 07:33:23;;;;;;;2.58;0.90;;;;;;;;;;5129918;27;20047;-72
2023/08/27 07:35:50;;;;;;;1.55;0.82;;;;;;;;;;5130749;27;20051;-73
2023/08/27 07:38:17;;;;;;;3.15;0.85;;;;;;;;;;5130210;27;20039;-73
2023/08/27 07:40:43;;;;;;;1.83;1.00;;;;;;;;;;5130835;27;20043;-73
2023/08/27 07:43:10;;;;;;;1.48;0.80;;;;;;;;;;5130473;27;20057;-73
2023/08/27 07:45:37;;;;;;;1.00;0.85;;;;;;;;;;5130562;27;20043;-73
2023/08/27 07:48:04;;;;;;;0.90;0.60;;;;;;;;;;5130170;27;20039;-72
2023/08/27 07:50:31;;;;;;;1.63;0.80;;;;;;;;;;5130440;27;20073;-73
2023/08/27 07:52:57;;;;;;;1.45;0.85;;;;;;;;;;5129619;27;20501;-73
2023/08/27 07:55:24;;;;;;;2.33;0.75;;;;;;;;;;5130183;27;20062;-73
2023/08/27 07:57:51;;;;;;;2.75;0.90;;;;;;;;;;5129428;27;20404;-73
2023/08/27 08:00:19;;;;;;;2.08;0.98;;;;;;;;;;5130209;27;20047;-73
2023/08/27 08:02:46;;;;;;;1.10;0.70;;;;;;;;;;5130154;27;20046;-73
2023/08/27 08:05:12;;;;;;;2.22;0.80;;;;;;;;;;5128997;27;20415;-73
2023/08/27 08:07:40;;;;;;;2.20;0.80;;;;;;;;;;5128161;27;20047;-73
2023/08/27 08:10:07;;;;;;;1.67;0.70;;;;;;;;;;5129896;27;20051;-73
2023/08/27 08:12:34;;;;;;;1.00;0.80;;;;;;;;;;5130130;27;20085;-73
2023/08/27 08:15:01;;;;;;;1.23;0.75;;;;;;;;;;5129973;27;20568;-73
2023/08/27 08:17:27;;;;;;;1.08;0.70;;;;;;;;;;5130092;27;20050;-72
2023/08/27 08:20:12;;;;;;;1.45;0.65;;;;;;;;;;5129894;27;20050;-74
2023/08/27 08:22:39;;;;;;;1.05;0.70;;;;;;;;;;5129475;27;20387;-72
2023/08/27 08:25:06;;;;;;;2.17;0.93;;;;;;;;;;5129752;27;20044;-72
2023/08/27 08:27:33;;;;;;;1.40;0.85;;;;;;;;;;5129532;27;20043;-72
2023/08/27 08:30:01;;;;;;;1.08;0.77;;;;;;;;;;5129581;27;20066;-72
2023/08/27 08:32:27;;;;;;;1.20;0.70;;;;;;;;;;5129690;27;20093;-73
2023/08/27 08:34:55;;;;;;;3.63;0.82;;;;;;;;;;5129549;27;20051;-72
2023/08/27 08:37:22;;;;;;;0.90;0.70;;;;;;;;;;5129270;27;20528;-73
2023/08/27 08:39:49;;;;;;;1.58;0.77;;;;;;;;;;5129754;27;20473;-72
2023/08/27 08:42:38;;;;;;;2.38;0.75;;;;;;;;;;5129868;27;20058;-73
2023/08/27 08:45:15;;;;;;;1.80;0.77;;;;;;;;;;5129669;27;20047;-72
2023/08/27 08:47:43;;;;;;;0.77;0.68;;;;;;;;;;5128212;27;20501;-73
2023/08/27 08:50:13;;;;;;;0.85;0.70;;;;;;;;;;5129378;27;20047;-73
2023/08/27 08:52:43;;;;;;;1.80;1.02;;;;;;;;;;5129461;27;20039;-73
2023/08/27 08:55:10;;;;;;;1.58;0.80;;;;;;;;;;5129584;27;20062;-72
2023/08/27 08:57:47;;;;;;;2.00;1.00;;;;;;;;;;5129671;27;20039;-73
2023/08/27 09:00:15;;;;;;;1.60;0.77;;;;;;;;;;5129098;27;20047;-72
2023/08/27 09:02:42;;;;;;;0.95;0.75;;;;;;;;;;5129471;27;20047;-73
2023/08/27 09:05:12;;;;;;;1.55;0.90;;;;;;;;;;5128152;28;20127;-72
2023/08/27 09:07:40;;;;;;;4.90;1.05;;;;;;;;;;5129437;27;20506;-73
2023/08/27 09:10:09;;;;;;;1.50;0.90;;;;;;;;;;5131136;27;20047;-73
2023/08/27 09:12:39;;;;;;;1.67;0.90;;;;;;;;;;5133534;27;20051;-73
2023/08/27 09:15:10;;;;;;;1.73;1.05;;;;;;;;;;5133131;27;20736;-72
2023/08/27 09:17:37;;;;;;;2.58;1.02;;;;;;;;;;5133303;27;20410;-73
2023/08/27 09:20:05;;;;;;;1.90;0.98;;;;;;;;;;5132584;27;20039;-72
2023/08/27 09:22:35;;;;;;;2.80;0.90;;;;;;;;;;5132680;27;20043;-73
2023/08/27 09:25:03;;;;;;;1.88;1.00;;;;;;;;;;5132736;27;20049;-72
2023/08/27 09:27:30;;;;;;;2.38;1.00;;;;;;;;;;5133312;27;20390;-72
2023/08/27 09:30:34;;;;;;;1.60;1.10;;;;;;;;;;5133415;27;20438;-72
2023/08/27 09:33:03;;;;;;;1.95;1.00;;;;;;;;;;5132945;27;20055;-73
2023/08/27 09:35:38;;;;;;;1.13;0.80;;;;;;;;;;5132668;27;20536;-73
2023/08/27 09:38:05;;;;;;;2.05;1.10;;;;;;;;;;5132363;27;20712;-72
2023/08/27 09:40:32;;;;;;;2.72;1.10;;;;;;;;;;5132875;27;20047;-73
2023/08/27 09:43:10;;;;;;;2.90;1.20;;;;;;;;;;5133100;27;20047;-72
2023/08/27 09:45:38;;;;;;;2.10;1.30;;;;;;;;;;5133015;27;20073;-73
2023/08/27 09:48:05;;;;;;;1.90;1.20;;;;;;;;;;5133129;27;20201;-73
2023/08/27 09:50:32;;;;;;;1.65;1.20;;;;;;;;;;5132930;27;20047;-72
2023/08/27 09:53:06;;;;;;;2.33;1.00;;;;;;;;;;5132564;27;20043;-72
2023/08/27 09:55:34;;;;;;;4.72;1.17;;;;;;;;;;5132502;27;20086;-72
2023/08/27 09:58:02;;;;;;;2.25;1.10;;;;;;;;;;5132453;27;20055;-72
2023/08/27 10:00:29;;;;;;;2.28;0.95;;;;;;;;;;5132656;27;20130;-72
2023/08/27 10:02:59;;;;;;;2.75;1.40;;;;;;;;;;5132598;27;20104;-72
2023/08/27 10:05:32;;;;;;;2.33;1.38;;;;;;;;;;5132752;27;20119;-71
2023/08/27 10:08:00;;;;;;;1.40;1.00;;;;;;;;;;5132770;27;20047;-71
2023/08/27 10:10:28;;;;;;;2.30;1.20;;;;;;;;;;5132266;27;20039;-73
2023/08/27 10:12:56;;;;;;;2.72;1.05;;;;;;;;;;5132448;27;20043;-73
2023/08/27 10:15:24;;;;;;;2.03;1.20;;;;;;;;;;5131893;27;20055;-73
2023/08/27 10:17:54;;;;;;;1.25;1.00;;;;;;;;;;5132373;27;20531;-73
2023/08/27 10:20:21;;;;;;;2.35;1.30;;;;;;;;;;5131589;27;20051;-73
2023/08/27 10:22:48;;;;;;;2.88;1.40;;;;;;;;;;5131152;27;20418;-72
2023/08/27 10:25:18;;;;;;;3.70;1.10;;;;;;;;;;5131900;27;20513;-73
2023/08/27 10:27:49;;;;;;;1.80;1.00;;;;;;;;;;5132373;27;20046;-73
2023/08/27 10:30:18;;;;;;;4.13;1.23;;;;;;;;;;5131554;27;20054;-73
2023/08/27 10:32:45;;;;;;;4.53;1.20;;;;;;;;;;5131646;27;20420;-73
2023/08/27 10:35:12;;;;;;;2.08;1.10;;;;;;;;;;5131704;27;20078;-73
2023/08/27 10:37:43;;;;;;;3.33;1.10;;;;;;;;;;5131559;27;20519;-73
2023/08/27 10:40:12;;;;;;;2.28;1.05;;;;;;;;;;5131587;27;20139;-73
2023/08/27 10:42:39;;;;;;;1.73;1.30;;;;;;;;;;5131877;27;20053;-73
2023/08/27 10:45:14;;;;;;;2.60;1.13;;;;;;;;;;5131588;27;20039;-73
2023/08/27 10:47:42;;;;;;;3.45;1.25;;;;;;;;;;5131515;27;20145;-73
2023/08/27 10:50:21;;;;;;;1.60;1.10;;;;;;;;;;5130944;27;20135;-72
2023/08/27 10:52:50;;;;;;;3.90;1.20;;;;;;;;;;5131088;27;20498;-73
2023/08/27 10:55:20;;;;;;;2.13;1.33;;;;;;;;;;5131222;27;20043;-72
2023/08/27 10:57:47;;;;;;;3.40;1.20;;;;;;;;;;5131625;27;20066;-72
2023/08/27 11:00:14;;;;;;;2.20;1.08;;;;;;;;;;5131407;27;20043;-73
2023/08/27 11:03:15;;;;;;;3.88;1.35;;;;;;;;;;5131279;27;20533;-73
2023/08/27 11:05:42;;;;;;;2.05;1.30;;;;;;;;;;5131136;27;20047;-72
2023/08/27 11:08:16;;;;;;;3.15;1.23;;;;;;;;;;5130585;27;20092;-71
2023/08/27 11:10:43;;;;;;;2.85;1.23;;;;;;;;;;5130705;27;20450;-73
2023/08/27 11:13:32;;;;;;;2.13;1.23;;;;;;;;;;5131294;27;20084;-73
2023/08/27 11:15:59;;;;;;;2.92;1.25;;;;;;;;;;5130981;27;20499;-73
2023/08/27 11:18:26;;;;;;;2.30;1.23;;;;;;;;;;5131002;27;20101;-74
2023/08/27 11:20:53;;;;;;;2.88;1.40;;;;;;;;;;5130908;27;20103;-73
2023/08/27 11:23:20;;;;;;;2.20;1.20;;;;;;;;;;5130269;27;20090;-73
2023/08/27 11:25:48;;;;;;;3.03;1.10;;;;;;;;;;5130730;27;20050;-73
2023/08/27 11:28:14;;;;;;;2.33;1.25;;;;;;;;;;5131075;27;20046;-72
2023/08/27 11:30:43;;;;;;;3.20;1.25;;;;;;;;;;5130218;27;20043;-74
2023/08/27 11:33:14;;;;;;;2.42;1.00;;;;;;;;;;5130696;27;20055;-73
2023/08/27 11:35:41;;;;;;;5.97;1.20;;;;;;;;;;5130356;27;20126;-73
2023/08/27 11:38:10;;;;;;;4.10;1.23;;;;;;;;;;5129112;27;20055;-73
2023/08/27 11:40:37;;;;;;;2.50;1.25;;;;;;;;;;5130274;27;20220;-74
2023/08/27 11:43:03;;;;;;;3.42;1.17;;;;;;;;;;5130529;27;20043;-73
2023/08/27 11:45:31;;;;;;;1.92;0.88;;;;;;;;;;5129969;27;20043;-73
2023/08/27 11:48:05;;;;;;;3.45;1.20;;;;;;;;;;5130596;27;20043;-73
2023/08/27 11:50:33;;;;;;;1.67;1.02;;;;;;;;;;5130231;27;20051;-73
2023/08/27 11:53:01;;;;;;;1.50;0.82;;;;;;;;;;5130288;27;20075;-73
2023/08/27 11:55:28;;;;;;;2.85;1.15;;;;;;;;;;5129932;27;20425;-73
2023/08/27 11:57:55;;;;;;;1.33;1.05;;;;;;;;;;5130269;27;20082;-74
2023/08/27 12:00:22;;;;;;;1.80;0.90;;;;;;;;;;5129580;27;20043;-73
2023/08/27 12:02:48;;;;;;;1.85;0.95;;;;;;;;;;5130061;27;20070;-74
2023/08/27 12:05:16;;;;;;;2.28;1.15;;;;;;;;;;5129745;27;20049;-73
2023/08/27 12:07:43;;;;;;;3.53;1.20;;;;;;;;;;5129951;27;20043;-73
2023/08/27 12:10:11;;;;;;;2.60;1.00;;;;;;;;;;5130264;27;20054;-74
2023/08/27 12:12:39;;;;;;;1.23;0.80;;;;;;;;;;5130235;27;20054;-73
2023/08/27 12:15:07;;;;;;;2.78;0.90;;;;;;;;;;5129992;27;20046;-74
2023/08/27 12:17:35;;;;;;;1.70;0.90;;;;;;;;;;5130166;27;20070;-73
2023/08/27 12:20:05;;;;;;;3.45;0.90;;;;;;;;;;5129601;27;20051;-73
2023/08/27 12:22:52;;;;;;;1.27;0.88;;;;;;;;;;5129305;27;20062;-73
2023/08/27 12:25:19;;;;;;;3.10;1.15;;;;;;;;;;5127090;27;20669;-73
2023/08/27 12:27:46;;;;;;;1.77;1.08;;;;;;;;;;5130045;27;20051;-73
2023/08/27 12:30:13;;;;;;;1.63;0.90;;;;;;;;;;5129837;27;20047;-74
2023/08/27 12:32:40;;;;;;;3.45;0.90;;;;;;;;;;5129357;27;20051;-73
2023/08/27 12:35:07;;;;;;;2.08;0.90;;;;;;;;;;5129501;27;20084;-73
2023/08/27 12:37:34;;;;;;;2.25;1.02;;;;;;;;;;5129381;27;20046;-73
2023/08/27 12:40:01;;;;;;;2.10;0.95;;;;;;;;;;5129455;27;20057;-73
2023/08/27 12:42:28;;;;;;;1.85;0.82;;;;;;;;;;5129301;27;20536;-73
2023/08/27 12:44:54;;;;;;;2.08;0.80;;;;;;;;;;5129248;27;20045;-73
2023/08/27 12:47:21;;;;;;;5.65;1.08;;;;;;;;;;5129169;27;20047;-74
2023/08/27 12:49:48;;;;;;;2.17;0.90;;;;;;;;;;5129654;28;20440;-74
2023/08/27 12:52:14;;;;;;;0.85;0.60;;;;;;;;;;5128614;28;20136;-73
2023/08/27 12:54:42;;;;;;;1.75;1.02;;;;;;;;;;5129377;27;20039;-73
2023/08/27 12:57:09;;;;;;;2.20;0.95;;;;;;;;;;5129341;27;20047;-73
2023/08/27 12:59:36;;;;;;;1.40;0.70;;;;;;;;;;5130088;27;20050;-73
2023/08/27 13:02:04;;;;;;;2.85;0.80;;;;;;;;;;5129463;28;20044;-73
2023/08/27 13:04:31;;;;;;;1.55;0.82;;;;;;;;;;5129892;27;20046;-73
2023/08/27 13:06:57;;;;;;;2.00;0.93;;;;;;;;;;5129746;28;20087;-73
2023/08/27 13:09:24;;;;;;;3.67;1.00;;;;;;;;;;5128997;28;20043;-73
2023/08/27 13:11:51;;;;;;;1.70;0.90;;;;;;;;;;5128776;27;20505;-73
2023/08/27 13:14:18;;;;;;;1.77;0.85;;;;;;;;;;5129796;27;20047;-73
2023/08/27 13:16:47;;;;;;;1.98;0.80;;;;;;;;;;5129056;27;20047;-73
2023/08/27 13:19:14;;;;;;;3.97;0.85;;;;;;;;;;5129543;27;20043;-73
2023/08/27 13:21:44;;;;;;;3.60;0.80;;;;;;;;;;5129025;27;20077;-73
2023/08/27 13:24:11;;;;;;;3.35;0.88;;;;;;;;;;5128702;27;20058;-73
2023/08/27 13:26:38;;;;;;;1.77;0.80;;;;;;;;;;5128993;27;20084;-73
2023/08/27 13:29:05;;;;;;;1.85;0.65;;;;;;;;;;5129362;27;20043;-73
2023/08/27 13:31:32;;;;;;;1.67;0.73;;;;;;;;;;5127223;28;20517;-73
2023/08/27 13:34:00;;;;;;;2.25;0.80;;;;;;;;;;5128811;27;20084;-73
2023/08/27 13:36:27;;;;;;;2.67;1.02;;;;;;;;;;5128665;27;20413;-73
2023/08/27 13:38:53;;;;;;;3.20;0.85;;;;;;;;;;5128964;28;20060;-72
2023/08/27 13:41:20;;;;;;;0.73;0.60;;;;;;;;;;5128856;28;20437;-73
2023/08/27 13:43:47;;;;;;;2.75;0.60;;;;;;;;;;5128900;28;20046;-74
2023/08/27 13:46:14;;;;;;;3.33;0.80;;;;;;;;;;5128921;28;20054;-73
2023/08/27 13:48:41;;;;;;;2.90;0.70;;;;;;;;;;5129002;27;20047;-73
2023/08/27 13:51:08;;;;;;;2.17;0.70;;;;;;;;;;5128588;27;20522;-73
2023/08/27 13:53:35;;;;;;;1.92;0.70;;;;;;;;;;5128499;27;20043;-73
2023/08/27 13:56:01;;;;;;;2.08;0.65;;;;;;;;;;5128851;27;20534;-73
2023/08/27 13:58:29;;;;;;;2.97;0.60;;;;;;;;;;5132800;27;20047;-74
2023/08/27 14:00:56;;;;;;;2.50;0.82;;;;;;;;;;5131202;27;20055;-73
2023/08/27 14:03:23;;;;;;;1.52;0.80;;;;;;;;;;5132623;27;20059;-72
2023/08/27 14:05:50;;;;;;;0.50;0.40;;;;;;;;;;5132285;27;20090;-74
2023/08/27 14:08:27;;;;;;;1.42;0.80;;;;;;;;;;5131877;27;20043;-73
2023/08/27 14:10:54;;;;;;;1.25;0.68;;;;;;;;;;5132469;27;20047;-73
2023/08/27 14:13:21;;;;;;;2.88;0.90;;;;;;;;;;5132214;27;20047;-73
2023/08/27 14:15:48;;;;;;;1.63;0.60;;;;;;;;;;5132163;27;20564;-72
2023/08/27 14:18:15;;;;;;;1.15;0.60;;;;;;;;;;5132118;27;20668;-73
2023/08/27 14:20:42;;;;;;;2.55;0.80;;;;;;;;;;5132094;27;20047;-74
2023/08/27 14:23:08;;;;;;;1.77;0.77;;;;;;;;;;5131165;27;20471;-72
2023/08/27 14:25:36;;;;;;;2.65;0.80;;;;;;;;;;5132205;27;20047;-71
2023/08/27 14:28:04;;;;;;;1.35;0.75;;;;;;;;;;5131834;27;20047;-72
2023/08/27 14:30:30;;;;;;;0.98;0.68;;;;;;;;;;5132197;27;20043;-72
2023/08/27 14:32:57;;;;;;;4.05;0.90;;;;;;;;;;5131437;27;20543;-72
2023/08/27 14:35:24;;;;;;;2.60;0.60;;;;;;;;;;5131644;27;20043;-72
2023/08/27 14:37:51;;;;;;;1.23;0.77;;;;;;;;;;5130353;27;20043;-73
2023/08/27 14:40:18;;;;;;;2.28;0.70;;;;;;;;;;5147575;27;20616;-72
2023/08/27 14:42:44;;;;;;;0.95;0.40;;;;;;;;;;5131542;27;20047;-72
2023/08/27 14:45:11;;;;;;;1.02;0.57;;;;;;;;;;5131600;27;20047;-72
2023/08/27 14:47:38;;;;;;;1.30;0.70;;;;;;;;;;5131359;27;20055;-72